Lebanon, MO (65536)

5:26 PM CDT on August 03, 2015 (GMT -0500)
S. Newport, Conway | | Change Station
CLOSE
Current Station
Personal Weather Station
Location: Conway, MO
Elevation: 1394 ft
Nearby Weather Stations

Elev 1394 ft 37.50 °N, 92.83 °W | Updated 23 seconds ago

Clear
Clear
95.5 °F
Feels Like 102 °F
N
2.2
Wind Variable Wind from SE
Gusts 3.8 mph

Today
High -- | Low -- °F
--% Chance of Precip.
Yesterday
High -- | Low -- °F
Precip. -- in
6:15 AM 8:17 PM
Waning Gibbous, 83% visible
Pressure 29.92 in
Visibility 10.0 miles
Clouds Clear
Heat Index 102 °F
Dew Point 70 °F
Humidity 44%
Rainfall 0.00 in
Snow Depth Not available.
UV 5 out of 12
Pollen 6.90 out of 12
Air Quality Not available.
Flu Activity Not available.
METAR KTBN 032158Z AUTO 01005KT 10SM CLR 32/21 A2994 RMK AO2 SLP130 T03200207

More Conditions Fewer Conditions

Pressure 29.92 in
Visibility 10.0 miles
Clouds Clear
Heat Index 102 °F
Dew Point 70 °F
Humidity 44%
Rainfall 0.00 in
Snow Depth Not available.
UV 5 out of 12
Pollen 6.90 out of 12
Air Quality Not available.
Flu Activity Not available.
METAR KTBN 032158Z AUTO 01005KT 10SM CLR 32/21 A2994 RMK AO2 SLP130 T03200207

More Conditions Fewer Conditions

10-Day Weather Forecast

×

Almanac

Astronomy

Aug. 03, 2015 Rise Set
Actual Time
Civil Twilight
Nautical Twilight
Astronomical Twilight
Moon
Length of Visible Light
Length of Day
Tomorrow will be .
, % of the Moon is Illuminated

Today's Extremes

State Highs State Lows

Community

WunderPhotos

Upload Photos

1,843,785 photos uploaded!

WunderBlogs® & News

Nearby

Air Quality

  Air Quality AQ Index Pollutant
Not available.

Snow Depth

Station Depth Elevation

Earthquake Activity

City Distance Mag. Time & Date
Minimum magnitude displayed is 2.5.

Coastal Water Temperatures

Place Temperature

Stations

Nearby Weather Stations

Station Location Temp. Windchill Dew Point Humidity Wind Precip. Elev Updated Type